sensor_id;sensor_type;location;lat;lon;timestamp;P1;durP1;ratioP1;P2;durP2;ratioP2
61523;SDS011;47393;38.758;-9.164;2022-08-23T00:01:43;25.80;;;8.77;;
61523;SDS011;47393;38.758;-9.164;2022-08-23T00:03:46;21.00;;;7.97;;
61523;SDS011;47393;38.758;-9.164;2022-08-23T00:05:47;28.00;;;8.20;;
61523;SDS011;47393;38.758;-9.164;2022-08-23T00:07:48;27.17;;;7.80;;
61523;SDS011;47393;38.758;-9.164;2022-08-23T00:09:49;29.30;;;8.23;;
61523;SDS011;47393;38.758;-9.164;2022-08-23T00:12:03;19.92;;;7.68;;
61523;SDS011;47393;38.758;-9.164;2022-08-23T00:14:18;20.35;;;8.23;;
61523;SDS011;47393;38.758;-9.164;2022-08-23T00:16:24;21.25;;;7.97;;
61523;SDS011;47393;38.758;-9.164;2022-08-23T00:18:28;26.90;;;8.45;;
61523;SDS011;47393;38.758;-9.164;2022-08-23T00:20:29;20.95;;;7.50;;
61523;SDS011;47393;38.758;-9.164;2022-08-23T00:22:30;23.90;;;8.65;;
61523;SDS011;47393;38.758;-9.164;2022-08-23T00:24:31;44.72;;;9.35;;
61523;SDS011;47393;38.758;-9.164;2022-08-23T00:29:08;22.63;;;8.02;;
61523;SDS011;47393;38.758;-9.164;2022-08-23T00:31:09;27.52;;;8.90;;
61523;SDS011;47393;38.758;-9.164;2022-08-23T00:33:12;21.60;;;8.82;;
61523;SDS011;47393;38.758;-9.164;2022-08-23T00:35:13;22.77;;;8.87;;
61523;SDS011;47393;38.758;-9.164;2022-08-23T00:37:15;22.13;;;8.38;;
61523;SDS011;47393;38.758;-9.164;2022-08-23T00:39:17;25.67;;;8.68;;
61523;SDS011;47393;38.758;-9.164;2022-08-23T00:41:19;30.80;;;9.40;;
61523;SDS011;47393;38.758;-9.164;2022-08-23T00:43:25;26.15;;;9.20;;
61523;SDS011;47393;38.758;-9.164;2022-08-23T00:48:28;25.48;;;9.05;;
61523;SDS011;47393;38.758;-9.164;2022-08-23T00:50:31;25.90;;;8.18;;
61523;SDS011;47393;38.758;-9.164;2022-08-23T00:52:37;27.25;;;9.98;;
61523;SDS011;47393;38.758;-9.164;2022-08-23T00:54:43;31.25;;;9.65;;
61523;SDS011;47393;38.758;-9.164;2022-08-23T00:56:45;26.52;;;9.43;;
61523;SDS011;47393;38.758;-9.164;2022-08-23T00:58:46;22.15;;;9.15;;
61523;SDS011;47393;38.758;-9.164;2022-08-23T01:00:48;29.42;;;9.68;;
61523;SDS011;47393;38.758;-9.164;2022-08-23T01:02:51;37.15;;;9.80;;
61523;SDS011;47393;38.758;-9.164;2022-08-23T01:04:54;25.45;;;9.32;;
61523;SDS011;47393;38.758;-9.164;2022-08-23T01:06:58;29.95;;;9.18;;
61523;SDS011;47393;38.758;-9.164;2022-08-23T01:09:12;29.15;;;9.60;;
61523;SDS011;47393;38.758;-9.164;2022-08-23T01:11:21;24.05;;;8.15;;
61523;SDS011;47393;38.758;-9.164;2022-08-23T01:13:28;26.83;;;8.93;;
61523;SDS011;47393;38.758;-9.164;2022-08-23T01:15:39;25.27;;;8.43;;
61523;SDS011;47393;38.758;-9.164;2022-08-23T01:18:02;30.60;;;9.63;;
61523;SDS011;47393;38.758;-9.164;2022-08-23T01:22:20;33.03;;;9.27;;
61523;SDS011;47393;38.758;-9.164;2022-08-23T01:24:45;27.00;;;8.55;;
61523;SDS011;47393;38.758;-9.164;2022-08-23T01:26:46;28.60;;;9.40;;
61523;SDS011;47393;38.758;-9.164;2022-08-23T01:28:47;26.05;;;8.90;;
61523;SDS011;47393;38.758;-9.164;2022-08-23T01:30:48;38.72;;;9.93;;
61523;SDS011;47393;38.758;-9.164;2022-08-23T01:32:56;26.70;;;8.50;;
61523;SDS011;47393;38.758;-9.164;2022-08-23T01:34:59;23.70;;;9.00;;
61523;SDS011;47393;38.758;-9.164;2022-08-23T01:37:02;25.30;;;9.30;;
61523;SDS011;47393;38.758;-9.164;2022-08-23T01:39:05;24.30;;;9.02;;
61523;SDS011;47393;38.758;-9.164;2022-08-23T01:41:06;26.05;;;9.27;;
61523;SDS011;47393;38.758;-9.164;2022-08-23T01:43:08;29.33;;;9.73;;
61523;SDS011;47393;38.758;-9.164;2022-08-23T01:45:11;27.38;;;9.00;;
61523;SDS011;47393;38.758;-9.164;2022-08-23T01:47:16;24.30;;;9.07;;
61523;SDS011;47393;38.758;-9.164;2022-08-23T01:49:20;26.77;;;9.20;;
61523;SDS011;47393;38.758;-9.164;2022-08-23T01:51:21;31.90;;;9.43;;
61523;SDS011;47393;38.758;-9.164;2022-08-23T01:53:23;30.80;;;9.80;;
61523;SDS011;47393;38.758;-9.164;2022-08-23T01:55:24;26.13;;;8.93;;
61523;SDS011;47393;38.758;-9.164;2022-08-23T01:57:26;28.33;;;9.18;;
61523;SDS011;47393;38.758;-9.164;2022-08-23T01:59:31;29.60;;;9.52;;
61523;SDS011;47393;38.758;-9.164;2022-08-23T02:01:32;29.33;;;9.27;;
61523;SDS011;47393;38.758;-9.164;2022-08-23T02:03:33;22.45;;;8.60;;
61523;SDS011;47393;38.758;-9.164;2022-08-23T02:05:35;33.20;;;9.32;;
61523;SDS011;47393;38.758;-9.164;2022-08-23T02:07:35;32.28;;;10.00;;
61523;SDS011;47393;38.758;-9.164;2022-08-23T02:09:37;29.92;;;9.55;;
61523;SDS011;47393;38.758;-9.164;2022-08-23T02:11:40;28.52;;;9.68;;
61523;SDS011;47393;38.758;-9.164;2022-08-23T02:13:43;24.02;;;9.02;;
61523;SDS011;47393;38.758;-9.164;2022-08-23T02:15:45;27.98;;;9.45;;
61523;SDS011;47393;38.758;-9.164;2022-08-23T02:17:47;28.27;;;9.88;;
61523;SDS011;47393;38.758;-9.164;2022-08-23T02:19:48;24.48;;;9.63;;
61523;SDS011;47393;38.758;-9.164;2022-08-23T02:21:49;28.95;;;9.38;;
61523;SDS011;47393;38.758;-9.164;2022-08-23T02:23:51;20.42;;;8.10;;
61523;SDS011;47393;38.758;-9.164;2022-08-23T02:25:52;32.45;;;9.60;;
61523;SDS011;47393;38.758;-9.164;2022-08-23T02:27:53;20.13;;;8.63;;
61523;SDS011;47393;38.758;-9.164;2022-08-23T02:29:54;28.50;;;8.75;;
61523;SDS011;47393;38.758;-9.164;2022-08-23T02:31:56;34.30;;;9.35;;
61523;SDS011;47393;38.758;-9.164;2022-08-23T02:33:57;40.40;;;9.63;;
61523;SDS011;47393;38.758;-9.164;2022-08-23T02:36:00;26.80;;;9.35;;
61523;SDS011;47393;38.758;-9.164;2022-08-23T02:38:04;25.02;;;9.82;;
61523;SDS011;47393;38.758;-9.164;2022-08-23T02:40:06;26.58;;;10.50;;
61523;SDS011;47393;38.758;-9.164;2022-08-23T02:42:07;26.30;;;9.70;;
61523;SDS011;47393;38.758;-9.164;2022-08-23T02:44:11;24.55;;;8.75;;
61523;SDS011;47393;38.758;-9.164;2022-08-23T02:46:14;26.98;;;9.70;;
61523;SDS011;47393;38.758;-9.164;2022-08-23T02:48:16;26.67;;;8.60;;
61523;SDS011;47393;38.758;-9.164;2022-08-23T02:50:30;34.63;;;9.73;;
61523;SDS011;47393;38.758;-9.164;2022-08-23T02:52:31;28.07;;;9.63;;
61523;SDS011;47393;38.758;-9.164;2022-08-23T02:54:34;20.40;;;8.85;;
61523;SDS011;47393;38.758;-9.164;2022-08-23T02:56:36;24.08;;;8.40;;
61523;SDS011;47393;38.758;-9.164;2022-08-23T02:58:37;32.00;;;10.07;;
61523;SDS011;47393;38.758;-9.164;2022-08-23T03:00:40;29.02;;;9.52;;
61523;SDS011;47393;38.758;-9.164;2022-08-23T03:02:47;28.38;;;10.35;;
61523;SDS011;47393;38.758;-9.164;2022-08-23T03:04:48;35.70;;;9.70;;
61523;SDS011;47393;38.758;-9.164;2022-08-23T03:06:51;24.95;;;9.13;;
61523;SDS011;47393;38.758;-9.164;2022-08-23T03:08:56;32.80;;;8.98;;
61523;SDS011;47393;38.758;-9.164;2022-08-23T03:10:57;24.77;;;9.60;;
61523;SDS011;47393;38.758;-9.164;2022-08-23T03:12:57;29.45;;;9.88;;
61523;SDS011;47393;38.758;-9.164;2022-08-23T03:14:58;21.77;;;8.93;;
61523;SDS011;47393;38.758;-9.164;2022-08-23T03:16:59;28.20;;;9.40;;
61523;SDS011;47393;38.758;-9.164;2022-08-23T03:19:00;26.27;;;9.60;;
61523;SDS011;47393;38.758;-9.164;2022-08-23T03:21:04;28.53;;;8.67;;
61523;SDS011;47393;38.758;-9.164;2022-08-23T03:23:08;23.25;;;9.63;;
61523;SDS011;47393;38.758;-9.164;2022-08-23T03:25:10;22.88;;;8.70;;
61523;SDS011;47393;38.758;-9.164;2022-08-23T03:27:34;26.92;;;8.93;;
61523;SDS011;47393;38.758;-9.164;2022-08-23T03:29:35;26.20;;;8.40;;
61523;SDS011;47393;38.758;-9.164;2022-08-23T03:31:36;20.70;;;9.07;;
61523;SDS011;47393;38.758;-9.164;2022-08-23T03:33:44;20.70;;;8.55;;
61523;SDS011;47393;38.758;-9.164;2022-08-23T03:35:45;24.60;;;9.68;;
61523;SDS011;47393;38.758;-9.164;2022-08-23T03:37:46;20.58;;;8.73;;
61523;SDS011;47393;38.758;-9.164;2022-08-23T03:39:48;22.88;;;8.75;;
61523;SDS011;47393;38.758;-9.164;2022-08-23T03:41:52;21.48;;;9.20;;
61523;SDS011;47393;38.758;-9.164;2022-08-23T03:43:53;18.67;;;8.55;;
61523;SDS011;47393;38.758;-9.164;2022-08-23T03:45:54;17.65;;;7.97;;
61523;SDS011;47393;38.758;-9.164;2022-08-23T03:47:55;18.27;;;6.97;;
61523;SDS011;47393;38.758;-9.164;2022-08-23T03:49:56;16.50;;;7.85;;
61523;SDS011;47393;38.758;-9.164;2022-08-23T03:51:58;14.55;;;7.78;;
61523;SDS011;47393;38.758;-9.164;2022-08-23T03:53:59;16.85;;;8.32;;
61523;SDS011;47393;38.758;-9.164;2022-08-23T03:56:01;15.88;;;7.25;;
61523;SDS011;47393;38.758;-9.164;2022-08-23T03:58:02;19.20;;;8.00;;
61523;SDS011;47393;38.758;-9.164;2022-08-23T04:00:07;17.42;;;7.45;;
61523;SDS011;47393;38.758;-9.164;2022-08-23T04:02:14;23.38;;;8.48;;
61523;SDS011;47393;38.758;-9.164;2022-08-23T04:04:15;22.58;;;8.65;;
61523;SDS011;47393;38.758;-9.164;2022-08-23T04:06:34;18.45;;;8.32;;
61523;SDS011;47393;38.758;-9.164;2022-08-23T04:08:35;21.83;;;8.52;;
61523;SDS011;47393;38.758;-9.164;2022-08-23T04:10:38;21.80;;;8.32;;
61523;SDS011;47393;38.758;-9.164;2022-08-23T04:12:39;19.25;;;8.93;;
61523;SDS011;47393;38.758;-9.164;2022-08-23T04:14:46;17.60;;;8.00;;
61523;SDS011;47393;38.758;-9.164;2022-08-23T04:16:48;23.30;;;7.70;;
61523;SDS011;47393;38.758;-9.164;2022-08-23T04:18:50;19.40;;;7.25;;
61523;SDS011;47393;38.758;-9.164;2022-08-23T04:20:53;17.77;;;7.57;;
61523;SDS011;47393;38.758;-9.164;2022-08-23T04:22:56;16.58;;;7.65;;
61523;SDS011;47393;38.758;-9.164;2022-08-23T04:24:59;11.75;;;7.40;;
61523;SDS011;47393;38.758;-9.164;2022-08-23T04:27:00;15.32;;;7.85;;
61523;SDS011;47393;38.758;-9.164;2022-08-23T04:29:01;17.52;;;7.35;;
61523;SDS011;47393;38.758;-9.164;2022-08-23T04:31:03;14.25;;;7.07;;
61523;SDS011;47393;38.758;-9.164;2022-08-23T04:33:05;16.00;;;7.70;;
61523;SDS011;47393;38.758;-9.164;2022-08-23T04:35:06;16.20;;;8.40;;
61523;SDS011;47393;38.758;-9.164;2022-08-23T04:37:08;14.27;;;7.57;;
61523;SDS011;47393;38.758;-9.164;2022-08-23T04:39:09;21.30;;;8.50;;
61523;SDS011;47393;38.758;-9.164;2022-08-23T04:41:12;24.13;;;9.18;;
61523;SDS011;47393;38.758;-9.164;2022-08-23T04:43:32;20.75;;;7.78;;
61523;SDS011;47393;38.758;-9.164;2022-08-23T04:45:33;19.60;;;8.48;;
61523;SDS011;47393;38.758;-9.164;2022-08-23T04:47:36;16.30;;;8.68;;
61523;SDS011;47393;38.758;-9.164;2022-08-23T04:49:37;16.67;;;8.50;;
61523;SDS011;47393;38.758;-9.164;2022-08-23T04:51:38;23.58;;;8.70;;
61523;SDS011;47393;38.758;-9.164;2022-08-23T04:53:39;26.10;;;9.65;;
61523;SDS011;47393;38.758;-9.164;2022-08-23T04:56:01;25.88;;;9.57;;
61523;SDS011;47393;38.758;-9.164;2022-08-23T04:58:04;31.95;;;10.25;;
61523;SDS011;47393;38.758;-9.164;2022-08-23T05:00:09;28.05;;;10.43;;
61523;SDS011;47393;38.758;-9.164;2022-08-23T05:02:13;22.00;;;9.50;;
61523;SDS011;47393;38.758;-9.164;2022-08-23T05:04:14;22.85;;;8.65;;
61523;SDS011;47393;38.758;-9.164;2022-08-23T05:06:16;22.35;;;8.93;;
61523;SDS011;47393;38.758;-9.164;2022-08-23T05:08:17;23.60;;;9.52;;
61523;SDS011;47393;38.758;-9.164;2022-08-23T05:10:18;26.88;;;9.60;;
61523;SDS011;47393;38.758;-9.164;2022-08-23T05:12:23;20.52;;;9.63;;
61523;SDS011;47393;38.758;-9.164;2022-08-23T05:14:24;26.40;;;10.30;;
61523;SDS011;47393;38.758;-9.164;2022-08-23T05:16:25;20.70;;;9.43;;
61523;SDS011;47393;38.758;-9.164;2022-08-23T05:18:37;20.45;;;9.10;;
61523;SDS011;47393;38.758;-9.164;2022-08-23T05:20:39;27.90;;;10.13;;
61523;SDS011;47393;38.758;-9.164;2022-08-23T05:22:40;25.05;;;9.45;;
61523;SDS011;47393;38.758;-9.164;2022-08-23T05:24:54;22.73;;;9.90;;
61523;SDS011;47393;38.758;-9.164;2022-08-23T05:26:56;26.55;;;10.02;;
61523;SDS011;47393;38.758;-9.164;2022-08-23T05:28:57;30.52;;;10.90;;
61523;SDS011;47393;38.758;-9.164;2022-08-23T05:31:04;29.80;;;9.43;;
61523;SDS011;47393;38.758;-9.164;2022-08-23T05:33:15;31.20;;;10.82;;
61523;SDS011;47393;38.758;-9.164;2022-08-23T05:35:16;34.33;;;11.20;;
61523;SDS011;47393;38.758;-9.164;2022-08-23T05:37:19;22.33;;;10.15;;
61523;SDS011;47393;38.758;-9.164;2022-08-23T05:39:20;24.02;;;10.35;;
61523;SDS011;47393;38.758;-9.164;2022-08-23T05:41:21;34.10;;;10.77;;
61523;SDS011;47393;38.758;-9.164;2022-08-23T05:43:24;24.05;;;9.77;;
61523;SDS011;47393;38.758;-9.164;2022-08-23T05:45:26;31.10;;;10.38;;
61523;SDS011;47393;38.758;-9.164;2022-08-23T05:47:27;29.73;;;9.70;;
61523;SDS011;47393;38.758;-9.164;2022-08-23T05:49:46;27.38;;;10.00;;
61523;SDS011;47393;38.758;-9.164;2022-08-23T05:51:47;30.92;;;10.85;;
61523;SDS011;47393;38.758;-9.164;2022-08-23T05:53:48;26.08;;;10.38;;
61523;SDS011;47393;38.758;-9.164;2022-08-23T05:55:54;34.63;;;9.98;;
61523;SDS011;47393;38.758;-9.164;2022-08-23T05:57:58;27.02;;;10.43;;
61523;SDS011;47393;38.758;-9.164;2022-08-23T06:00:00;24.80;;;9.60;;
61523;SDS011;47393;38.758;-9.164;2022-08-23T06:02:03;20.98;;;8.88;;
61523;SDS011;47393;38.758;-9.164;2022-08-23T06:04:05;26.08;;;9.77;;
61523;SDS011;47393;38.758;-9.164;2022-08-23T06:06:09;28.90;;;10.10;;
61523;SDS011;47393;38.758;-9.164;2022-08-23T06:08:11;37.05;;;10.35;;
61523;SDS011;47393;38.758;-9.164;2022-08-23T06:10:12;31.83;;;10.40;;
61523;SDS011;47393;38.758;-9.164;2022-08-23T06:12:13;31.33;;;10.70;;
61523;SDS011;47393;38.758;-9.164;2022-08-23T06:14:14;25.77;;;10.07;;
61523;SDS011;47393;38.758;-9.164;2022-08-23T06:16:17;34.22;;;9.80;;
61523;SDS011;47393;38.758;-9.164;2022-08-23T06:18:20;40.38;;;10.48;;
61523;SDS011;47393;38.758;-9.164;2022-08-23T06:20:24;24.30;;;8.40;;
61523;SDS011;47393;38.758;-9.164;2022-08-23T06:22:36;25.70;;;8.52;;
61523;SDS011;47393;38.758;-9.164;2022-08-23T06:24:37;27.70;;;8.60;;
61523;SDS011;47393;38.758;-9.164;2022-08-23T06:26:45;16.08;;;6.95;;
61523;SDS011;47393;38.758;-9.164;2022-08-23T06:28:47;16.52;;;6.88;;
61523;SDS011;47393;38.758;-9.164;2022-08-23T06:30:54;15.52;;;6.43;;
61523;SDS011;47393;38.758;-9.164;2022-08-23T06:33:00;19.27;;;6.38;;
61523;SDS011;47393;38.758;-9.164;2022-08-23T06:35:39;12.00;;;5.90;;
61523;SDS011;47393;38.758;-9.164;2022-08-23T06:38:06;21.85;;;6.50;;
61523;SDS011;47393;38.758;-9.164;2022-08-23T06:40:28;11.57;;;5.80;;
61523;SDS011;47393;38.758;-9.164;2022-08-23T06:42:52;16.33;;;4.78;;
61523;SDS011;47393;38.758;-9.164;2022-08-23T06:44:58;9.07;;;4.57;;
61523;SDS011;47393;38.758;-9.164;2022-08-23T06:47:15;19.17;;;4.85;;
61523;SDS011;47393;38.758;-9.164;2022-08-23T06:49:17;10.23;;;3.90;;
61523;SDS011;47393;38.758;-9.164;2022-08-23T06:51:23;27.17;;;5.25;;
61523;SDS011;47393;38.758;-9.164;2022-08-23T06:53:50;7.03;;;4.05;;
61523;SDS011;47393;38.758;-9.164;2022-08-23T06:56:22;14.98;;;5.20;;
61523;SDS011;47393;38.758;-9.164;2022-08-23T06:58:43;11.90;;;4.93;;
61523;SDS011;47393;38.758;-9.164;2022-08-23T07:00:53;9.95;;;4.07;;
61523;SDS011;47393;38.758;-9.164;2022-08-23T07:03:00;14.60;;;3.92;;
61523;SDS011;47393;38.758;-9.164;2022-08-23T07:05:19;10.52;;;3.20;;
61523;SDS011;47393;38.758;-9.164;2022-08-23T07:07:46;11.32;;;4.60;;
61523;SDS011;47393;38.758;-9.164;2022-08-23T07:09:47;17.35;;;4.50;;
61523;SDS011;47393;38.758;-9.164;2022-08-23T07:11:50;11.02;;;3.78;;
61523;SDS011;47393;38.758;-9.164;2022-08-23T07:13:59;17.33;;;5.20;;
61523;SDS011;47393;38.758;-9.164;2022-08-23T07:16:05;11.65;;;5.18;;
61523;SDS011;47393;38.758;-9.164;2022-08-23T07:18:09;13.23;;;4.75;;
61523;SDS011;47393;38.758;-9.164;2022-08-23T07:20:13;17.52;;;4.85;;
61523;SDS011;47393;38.758;-9.164;2022-08-23T07:22:16;17.30;;;5.43;;
61523;SDS011;47393;38.758;-9.164;2022-08-23T07:24:17;14.00;;;5.15;;
61523;SDS011;47393;38.758;-9.164;2022-08-23T07:26:18;15.23;;;4.95;;
61523;SDS011;47393;38.758;-9.164;2022-08-23T07:28:19;16.58;;;5.32;;
61523;SDS011;47393;38.758;-9.164;2022-08-23T07:30:20;16.85;;;5.60;;
61523;SDS011;47393;38.758;-9.164;2022-08-23T07:32:27;22.67;;;5.35;;
61523;SDS011;47393;38.758;-9.164;2022-08-23T07:34:36;14.35;;;4.93;;
61523;SDS011;47393;38.758;-9.164;2022-08-23T07:36:38;12.85;;;4.53;;
61523;SDS011;47393;38.758;-9.164;2022-08-23T07:38:44;11.30;;;4.55;;
61523;SDS011;47393;38.758;-9.164;2022-08-23T07:40:53;14.90;;;4.65;;
61523;SDS011;47393;38.758;-9.164;2022-08-23T07:42:55;19.00;;;4.95;;
61523;SDS011;47393;38.758;-9.164;2022-08-23T07:44:56;17.20;;;5.15;;
61523;SDS011;47393;38.758;-9.164;2022-08-23T07:46:59;17.90;;;5.32;;
61523;SDS011;47393;38.758;-9.164;2022-08-23T07:49:02;12.95;;;4.93;;
61523;SDS011;47393;38.758;-9.164;2022-08-23T07:51:27;17.70;;;5.35;;
61523;SDS011;47393;38.758;-9.164;2022-08-23T07:53:31;23.40;;;5.32;;
61523;SDS011;47393;38.758;-9.164;2022-08-23T07:55:32;17.08;;;6.00;;
61523;SDS011;47393;38.758;-9.164;2022-08-23T07:57:55;9.55;;;4.63;;
61523;SDS011;47393;38.758;-9.164;2022-08-23T08:00:08;19.08;;;4.85;;
61523;SDS011;47393;38.758;-9.164;2022-08-23T08:02:32;8.55;;;4.43;;
61523;SDS011;47393;38.758;-9.164;2022-08-23T08:04:37;16.48;;;4.47;;
61523;SDS011;47393;38.758;-9.164;2022-08-23T08:06:39;16.08;;;5.38;;
61523;SDS011;47393;38.758;-9.164;2022-08-23T08:08:42;13.63;;;4.80;;
61523;SDS011;47393;38.758;-9.164;2022-08-23T08:10:56;13.25;;;5.03;;
61523;SDS011;47393;38.758;-9.164;2022-08-23T08:12:57;15.82;;;4.70;;
61523;SDS011;47393;38.758;-9.164;2022-08-23T08:14:58;16.55;;;4.80;;
61523;SDS011;47393;38.758;-9.164;2022-08-23T08:17:07;12.40;;;4.72;;
61523;SDS011;47393;38.758;-9.164;2022-08-23T08:19:40;9.00;;;4.55;;
61523;SDS011;47393;38.758;-9.164;2022-08-23T08:22:00;15.15;;;4.90;;
61523;SDS011;47393;38.758;-9.164;2022-08-23T08:24:20;9.45;;;4.85;;
61523;SDS011;47393;38.758;-9.164;2022-08-23T08:26:25;11.95;;;5.20;;
61523;SDS011;47393;38.758;-9.164;2022-08-23T08:28:30;16.08;;;5.60;;
61523;SDS011;47393;38.758;-9.164;2022-08-23T08:30:40;16.05;;;5.43;;
61523;SDS011;47393;38.758;-9.164;2022-08-23T08:32:41;9.57;;;4.20;;
61523;SDS011;47393;38.758;-9.164;2022-08-23T08:34:42;13.25;;;5.50;;
61523;SDS011;47393;38.758;-9.164;2022-08-23T08:36:48;14.43;;;5.35;;
61523;SDS011;47393;38.758;-9.164;2022-08-23T08:38:52;11.07;;;4.82;;
61523;SDS011;47393;38.758;-9.164;2022-08-23T08:46:23;16.27;;;5.72;;
61523;SDS011;47393;38.758;-9.164;2022-08-23T08:48:47;8.40;;;4.80;;
61523;SDS011;47393;38.758;-9.164;2022-08-23T08:51:03;13.77;;;5.25;;
61523;SDS011;47393;38.758;-9.164;2022-08-23T08:53:14;12.80;;;5.07;;
61523;SDS011;47393;38.758;-9.164;2022-08-23T08:55:45;26.23;;;6.43;;
61523;SDS011;47393;38.758;-9.164;2022-08-23T08:57:58;9.40;;;4.97;;
61523;SDS011;47393;38.758;-9.164;2022-08-23T09:00:06;18.05;;;5.45;;
61523;SDS011;47393;38.758;-9.164;2022-08-23T09:02:14;11.27;;;5.68;;
61523;SDS011;47393;38.758;-9.164;2022-08-23T09:04:25;13.10;;;5.93;;
61523;SDS011;47393;38.758;-9.164;2022-08-23T09:06:30;13.35;;;5.47;;
61523;SDS011;47393;38.758;-9.164;2022-08-23T09:18:06;17.38;;;5.80;;
61523;SDS011;47393;38.758;-9.164;2022-08-23T09:20:13;15.70;;;5.53;;
61523;SDS011;47393;38.758;-9.164;2022-08-23T09:22:27;16.77;;;6.00;;
61523;SDS011;47393;38.758;-9.164;2022-08-23T09:24:33;16.70;;;5.57;;
61523;SDS011;47393;38.758;-9.164;2022-08-23T09:26:41;14.10;;;5.75;;
61523;SDS011;47393;38.758;-9.164;2022-08-23T09:28:43;21.75;;;5.88;;
61523;SDS011;47393;38.758;-9.164;2022-08-23T09:30:50;13.68;;;4.78;;
61523;SDS011;47393;38.758;-9.164;2022-08-23T09:32:57;12.88;;;5.70;;
61523;SDS011;47393;38.758;-9.164;2022-08-23T09:35:22;17.23;;;5.68;;
61523;SDS011;47393;38.758;-9.164;2022-08-23T09:37:43;16.50;;;5.43;;
61523;SDS011;47393;38.758;-9.164;2022-08-23T09:40:14;18.77;;;5.57;;
61523;SDS011;47393;38.758;-9.164;2022-08-23T09:42:25;18.20;;;4.97;;
61523;SDS011;47393;38.758;-9.164;2022-08-23T09:44:49;22.92;;;5.38;;
61523;SDS011;47393;38.758;-9.164;2022-08-23T09:46:53;16.30;;;5.88;;
61523;SDS011;47393;38.758;-9.164;2022-08-23T09:49:21;15.32;;;5.13;;
61523;SDS011;47393;38.758;-9.164;2022-08-23T09:51:43;15.88;;;5.70;;
61523;SDS011;47393;38.758;-9.164;2022-08-23T09:54:12;21.15;;;5.25;;
61523;SDS011;47393;38.758;-9.164;2022-08-23T09:56:32;18.30;;;6.70;;
61523;SDS011;47393;38.758;-9.164;2022-08-23T09:58:39;20.05;;;5.93;;
61523;SDS011;47393;38.758;-9.164;2022-08-23T10:01:01;20.88;;;5.95;;
61523;SDS011;47393;38.758;-9.164;2022-08-23T10:03:37;15.10;;;5.93;;
61523;SDS011;47393;38.758;-9.164;2022-08-23T10:05:49;14.10;;;6.18;;
61523;SDS011;47393;38.758;-9.164;2022-08-23T10:07:59;17.48;;;5.50;;
61523;SDS011;47393;38.758;-9.164;2022-08-23T10:10:12;15.93;;;4.85;;
61523;SDS011;47393;38.758;-9.164;2022-08-23T10:12:34;15.73;;;5.20;;
61523;SDS011;47393;38.758;-9.164;2022-08-23T10:14:35;10.43;;;5.10;;
61523;SDS011;47393;38.758;-9.164;2022-08-23T10:16:44;20.88;;;6.15;;
61523;SDS011;47393;38.758;-9.164;2022-08-23T10:23:36;19.00;;;5.82;;
61523;SDS011;47393;38.758;-9.164;2022-08-23T10:26:05;17.23;;;5.18;;
61523;SDS011;47393;38.758;-9.164;2022-08-23T10:36:28;15.10;;;5.43;;
61523;SDS011;47393;38.758;-9.164;2022-08-23T10:38:57;18.10;;;5.45;;
61523;SDS011;47393;38.758;-9.164;2022-08-23T10:45:43;16.48;;;5.32;;
61523;SDS011;47393;38.758;-9.164;2022-08-23T10:50:22;14.63;;;6.05;;
61523;SDS011;47393;38.758;-9.164;2022-08-23T10:52:34;20.63;;;6.05;;
61523;SDS011;47393;38.758;-9.164;2022-08-23T10:54:44;16.25;;;5.53;;
61523;SDS011;47393;38.758;-9.164;2022-08-23T10:56:54;14.73;;;6.00;;
61523;SDS011;47393;38.758;-9.164;2022-08-23T10:59:22;21.95;;;5.88;;
61523;SDS011;47393;38.758;-9.164;2022-08-23T11:01:39;17.02;;;6.28;;
61523;SDS011;47393;38.758;-9.164;2022-08-23T11:03:51;22.63;;;6.10;;
61523;SDS011;47393;38.758;-9.164;2022-08-23T11:08:43;19.33;;;5.53;;
61523;SDS011;47393;38.758;-9.164;2022-08-23T11:10:46;27.95;;;5.50;;
61523;SDS011;47393;38.758;-9.164;2022-08-23T11:12:50;13.63;;;5.88;;
61523;SDS011;47393;38.758;-9.164;2022-08-23T11:17:23;15.18;;;5.97;;
61523;SDS011;47393;38.758;-9.164;2022-08-23T11:21:51;17.83;;;5.00;;
61523;SDS011;47393;38.758;-9.164;2022-08-23T11:32:38;18.83;;;5.68;;
61523;SDS011;47393;38.758;-9.164;2022-08-23T11:40:00;17.00;;;5.82;;
61523;SDS011;47393;38.758;-9.164;2022-08-23T11:41:58;16.23;;;5.68;;
61523;SDS011;47393;38.758;-9.164;2022-08-23T11:53:05;15.88;;;5.88;;
61523;SDS011;47393;38.758;-9.164;2022-08-23T11:57:48;20.25;;;5.13;;
61523;SDS011;47393;38.758;-9.164;2022-08-23T12:00:18;19.77;;;5.65;;
61523;SDS011;47393;38.758;-9.164;2022-08-23T12:02:51;14.43;;;5.43;;
61523;SDS011;47393;38.758;-9.164;2022-08-23T12:04:57;17.20;;;4.70;;
61523;SDS011;47393;38.758;-9.164;2022-08-23T12:07:00;18.17;;;5.15;;
61523;SDS011;47393;38.758;-9.164;2022-08-23T12:09:03;19.60;;;5.65;;
61523;SDS011;47393;38.758;-9.164;2022-08-23T12:11:24;16.52;;;6.45;;
61523;SDS011;47393;38.758;-9.164;2022-08-23T12:13:59;11.70;;;5.80;;
61523;SDS011;47393;38.758;-9.164;2022-08-23T12:18:21;14.32;;;5.80;;
61523;SDS011;47393;38.758;-9.164;2022-08-23T12:20:26;19.35;;;5.43;;
61523;SDS011;47393;38.758;-9.164;2022-08-23T12:22:33;12.75;;;5.18;;
61523;SDS011;47393;38.758;-9.164;2022-08-23T12:25:05;20.85;;;5.88;;
61523;SDS011;47393;38.758;-9.164;2022-08-23T12:27:11;15.10;;;5.68;;
61523;SDS011;47393;38.758;-9.164;2022-08-23T12:31:52;30.80;;;6.00;;
61523;SDS011;47393;38.758;-9.164;2022-08-23T12:34:10;19.33;;;6.03;;
61523;SDS011;47393;38.758;-9.164;2022-08-23T12:36:32;12.45;;;6.05;;
61523;SDS011;47393;38.758;-9.164;2022-08-23T12:38:41;17.17;;;5.50;;
61523;SDS011;47393;38.758;-9.164;2022-08-23T12:40:51;12.13;;;5.00;;
61523;SDS011;47393;38.758;-9.164;2022-08-23T12:43:00;12.10;;;5.57;;
61523;SDS011;47393;38.758;-9.164;2022-08-23T12:45:11;14.38;;;5.45;;
61523;SDS011;47393;38.758;-9.164;2022-08-23T12:47:24;26.75;;;6.05;;
61523;SDS011;47393;38.758;-9.164;2022-08-23T12:49:29;23.02;;;6.20;;
61523;SDS011;47393;38.758;-9.164;2022-08-23T12:51:38;15.20;;;5.50;;
61523;SDS011;47393;38.758;-9.164;2022-08-23T12:53:41;22.13;;;5.75;;
61523;SDS011;47393;38.758;-9.164;2022-08-23T12:55:45;20.95;;;5.60;;
61523;SDS011;47393;38.758;-9.164;2022-08-23T12:57:50;29.83;;;6.35;;
61523;SDS011;47393;38.758;-9.164;2022-08-23T13:02:25;15.75;;;5.63;;
61523;SDS011;47393;38.758;-9.164;2022-08-23T13:04:27;14.23;;;5.65;;
61523;SDS011;47393;38.758;-9.164;2022-08-23T13:06:30;11.98;;;5.25;;
61523;SDS011;47393;38.758;-9.164;2022-08-23T13:09:08;12.25;;;5.25;;
61523;SDS011;47393;38.758;-9.164;2022-08-23T13:11:13;11.45;;;5.22;;
61523;SDS011;47393;38.758;-9.164;2022-08-23T13:13:18;16.73;;;5.68;;
61523;SDS011;47393;38.758;-9.164;2022-08-23T13:15:42;17.80;;;5.65;;
61523;SDS011;47393;38.758;-9.164;2022-08-23T13:19:48;22.95;;;5.65;;
61523;SDS011;47393;38.758;-9.164;2022-08-23T13:26:39;9.07;;;4.55;;
61523;SDS011;47393;38.758;-9.164;2022-08-23T13:28:49;14.80;;;4.85;;
61523;SDS011;47393;38.758;-9.164;2022-08-23T13:31:02;10.38;;;4.78;;
61523;SDS011;47393;38.758;-9.164;2022-08-23T13:37:29;14.93;;;5.07;;
61523;SDS011;47393;38.758;-9.164;2022-08-23T13:39:31;11.40;;;4.50;;
61523;SDS011;47393;38.758;-9.164;2022-08-23T13:41:36;16.73;;;4.78;;
61523;SDS011;47393;38.758;-9.164;2022-08-23T13:43:38;9.65;;;4.55;;
61523;SDS011;47393;38.758;-9.164;2022-08-23T13:45:49;10.18;;;4.72;;
61523;SDS011;47393;38.758;-9.164;2022-08-23T13:47:57;11.70;;;3.95;;
61523;SDS011;47393;38.758;-9.164;2022-08-23T13:50:01;10.02;;;4.78;;
61523;SDS011;47393;38.758;-9.164;2022-08-23T13:52:16;7.78;;;4.60;;
61523;SDS011;47393;38.758;-9.164;2022-08-23T13:54:17;13.50;;;4.88;;
61523;SDS011;47393;38.758;-9.164;2022-08-23T13:56:18;20.30;;;6.30;;
61523;SDS011;47393;38.758;-9.164;2022-08-23T13:58:29;12.55;;;5.18;;